Skip to main content.

Nearby METAR Reports

 

KJYR - York, Nebraska, USA
Distance from station: NW 27mi, 43km
Updated: Mon, 25-Jun-2018 12:35pm CDT
Rain, Partly cloudy
Rain, Partly cloudy
 Wind from N
Wind: N 7 mph , 11 km/h
Temperature: 64°F , 18°C
Dew Point: 64°F , 18°C
Humidity: 100%
Barometer: 29.87 inHg , 1011.5 hPa
Summary: Rain
Clouds: Partly Cloudy
Visibility: 2 1/2 miles , 2 km
Cloud details: Partly Cloudy 500 ft
2018/06/25 17:35 KJYR 251735Z AUTO 35006KT 2 1/2SM RA SCT005 18/18 A2987 RMK AO2 P0005
KLNK - Lincoln, Nebraska, USA
Distance from station: ENE 27mi, 44km
Updated: Mon, 25-Jun-2018 12:52pm CDT
Rain, Mist, Overcast
Rain, Mist, Overcast
 Wind from S
Wind: S 7 mph , 11 km/h
Temperature: 70°F , 21°C
Dew Point: 66°F , 19°C
Humidity: 88%
Barometer: 29.83 inHg , 1010.2 hPa
Summary: Rain, Mist
Clouds: Overcast
Visibility: 1 1/4 miles , 2 km
Cloud details: Partly Cloudy 400 ft
Mostly Cloudy 1000 ft
Overcast 3500 ft
2018/06/25 17:52 KLNK 251752Z 17006KT 1 1/4SM R36/3500VP6000FT RA BR SCT004 BKN010 OVC035 21/19 A2983 RMK AO2 LTG DSNT NW P0085
 
KBIE - Beatrice Municip, Nebraska, USA
Distance from station: SE 36mi, 58km
Updated: Mon, 25-Jun-2018 12:35pm CDT
Overcast
Overcast
 Wind from W
Wind: W 9 mph , 15 km/h
Temperature: 73°F , 23°C
Dew Point: 70°F , 21°C
Humidity: 89%
Barometer: 29.83 inHg , 1010.2 hPa
Clouds: Overcast
Visibility: 10 miles , 16 km
Cloud details: Partly Cloudy 900 ft
Mostly Cloudy 1500 ft
Overcast 3500 ft
2018/06/25 17:35 KBIE 251735Z AUTO 28008KT 10SM SCT009 BKN015 OVC035 23/21 A2983 RMK AO2 T02300206
KHJH - Hebron Muni, Nebraska, USA
Distance from station: SSW 40mi, 64km
Updated: Mon, 25-Jun-2018 12:35pm CDT
Mostly Cloudy
Mostly Cloudy
 Wind from WNW
Wind: WNW 8 mph , 13 km/h
Temperature: 73°F , 23°C
Dew Point: 64°F , 18°C
Humidity: 74%
Barometer: 29.85 inHg , 1010.8 hPa
Clouds: Mostly Cloudy
Visibility: 10 miles , 16 km
Cloud details: Mostly Cloudy 2300 ft
2018/06/25 17:35 KHJH 251735Z AUTO 29007KT 10SM BKN023 23/18 A2985 RMK AO2 T02340181
 
KAUH - Aurora, Nebraska, USA
Distance from station: WNW 44mi, 70km
Updated: Mon, 25-Jun-2018 12:35pm CDT
Overcast
Overcast
 Wind from NNE
Wind: NNE 8 mph , 13 km/h
Temperature: 68°F , 20°C
Dew Point: 66°F , 19°C
Humidity: 94%
Barometer: 29.87 inHg , 1011.5 hPa
Clouds: Overcast
Visibility: 10 miles , 16 km
Cloud details: Mostly Cloudy 800 ft
Mostly Cloudy 1300 ft
Overcast 6000 ft
2018/06/25 17:35 KAUH 251735Z AUTO 03007KT 10SM BKN008 BKN013 OVC060 20/19 A2987 RMK AO2 T01960187
KAHQ - Wahoo, Nebraska, USA
Distance from station: NE 51mi, 82km
Updated: Mon, 25-Jun-2018 12:35pm CDT
Light rain, Overcast
Light rain, Overcast
 Wind from E
Wind: E 15 mph , 24 km/h, Gust: 22 mph , 35 km/h
Temperature: 68°F , 20°C
Dew Point: 68°F , 20°C
Humidity: 100%
Barometer: 29.86 inHg , 1011.2 hPa
Summary: Light Rain
Clouds: Overcast
Visibility: 4 miles , 6 km
Cloud details: Partly Cloudy 1100 ft
Mostly Cloudy 1900 ft
Overcast 4600 ft
2018/06/25 17:35 KAHQ 251735Z AUTO 10013G19KT 4SM -RA SCT011 BKN019 OVC046 20/20 A2986 RMK AO2 P0014 T02020196
 
KOLU - Columbus Muni, Nebraska, USA
Distance from station: N 55mi, 88km
Updated: Mon, 25-Jun-2018 12:44pm CDT
Mist, Overcast
Mist, Overcast
 Wind from NNW
Wind: NNW 9 mph , 15 km/h
Temperature: 64°F , 18°C
Dew Point: 64°F , 18°C
Humidity: 100%
Barometer: 29.88 inHg , 1011.9 hPa
Summary: Mist
Clouds: Overcast
Visibility: 3/4 mile , 5 km
Cloud details: Few Clouds 1800 ft
Partly Cloudy 2500 ft
Overcast 3400 ft
2018/06/25 17:44 KOLU 251744Z AUTO 34008KT 3/4SM BR FEW018 SCT025 OVC034 18/18 A2988 RMK AO2
KGRI - Grand Island, Nebraska, USA
Distance from station: WNW 61mi, 99km
Updated: Mon, 25-Jun-2018 12:50pm CDT
Mostly Cloudy
Mostly Cloudy
 Wind from NNE
Wind: NNE 6 mph , 9 km/h
Temperature: 70°F , 21°C
Dew Point: 63°F , 17°C
Humidity: 78%
Barometer: 29.87 inHg , 1011.5 hPa
Clouds: Mostly Cloudy
Visibility: 10 miles , 16 km
Cloud details: Few Clouds 1400 ft
Mostly Cloudy 2000 ft
Mostly Cloudy 3000 ft
2018/06/25 17:50 KGRI 251750Z 03005KT 10SM FEW014 BKN020 BKN030 21/17 A2987 RMK AO2 RAB22E37 P0000
 
KHSI - Hastings, Nebraska, USA
Distance from station: W 64mi, 103km
Updated: Mon, 25-Jun-2018 11:53am CDT
Overcast
Overcast
 Wind from N
Wind: N 7 mph , 11 km/h
Temperature: 70°F , 21°C
Dew Point: 64°F , 18°C
Humidity: 83%
Barometer: 29.89 inHg , 1012.2 hPa
Clouds: Overcast
Visibility: 10 miles , 16 km
Cloud details: Partly Cloudy 1100 ft
Mostly Cloudy 1800 ft
Overcast 6000 ft
2018/06/25 16:53 KHSI 251653Z AUTO 36006KT 10SM SCT011 BKN018 OVC060 21/18 A2989 RMK AO2 RAB14E30 SLP109 P0000 T02060178
KFET - Fremont Muni Arp, Nebraska, USA
Distance from station: NNE 66mi, 106km
Updated: Mon, 25-Jun-2018 12:35pm CDT
Rain, Overcast
Rain, Overcast
 Wind from E
Wind: E 9 mph , 15 km/h
Temperature: 70°F , 21°C
Dew Point: 68°F , 20°C
Humidity: 94%
Barometer: 29.87 inHg , 1011.5 hPa
Summary: Rain
Clouds: Overcast
Visibility: 5 miles , 8 km
Cloud details: Partly Cloudy 800 ft
Mostly Cloudy 1400 ft
Overcast 4500 ft
2018/06/25 17:35 KFET 251735Z AUTO 10008KT 5SM RA SCT008 BKN014 OVC045 21/20 A2987 RMK AO2 P0008 T02120204
 
KMLE - Omaha/Millard, Nebraska, USA
Distance from station: NE 69mi, 110km
Updated: Mon, 25-Jun-2018 12:35pm CDT
Rain, Overcast
Rain, Overcast
 Wind from ESE
Wind: ESE 9 mph , 15 km/h
Temperature: 72°F , 22°C
Dew Point: 70°F , 21°C
Humidity: 94%
Barometer: 29.86 inHg , 1011.2 hPa
Summary: Rain
Clouds: Overcast
Visibility: 3 miles , 5 km
Cloud details: Partly Cloudy 800 ft
Mostly Cloudy 1200 ft
Overcast 3600 ft
2018/06/25 17:35 KMLE 251735Z AUTO 11008KT 3SM RA SCT008 BKN012 OVC036 22/21 A2986 RMK AO2 P0008 T02150205
KPMV - Plattsmouth Muni, Nebraska, USA
Distance from station: ENE 71mi, 114km
Updated: Mon, 25-Jun-2018 12:35pm CDT
Light rain, Overcast
Light rain, Overcast
 Wind from E
Wind: E 13 mph , 20 km/h, Gust: 18 mph , 30 km/h
Temperature: 70°F , 21°C
Dew Point: 68°F , 20°C
Humidity: 94%
Barometer: 29.85 inHg , 1010.8 hPa
Summary: Light Rain
Clouds: Overcast
Visibility: 5 miles , 8 km
Cloud details: Mostly Cloudy 900 ft
Mostly Cloudy 1300 ft
Overcast 4000 ft
2018/06/25 17:35 KPMV 251735Z AUTO 09011G16KT 5SM -RA BKN009 BKN013 OVC040 21/20 A2985 RMK AO2 P0002 T02070200
 
KAFK - Nebraska City, Nebraska, USA
Distance from station: E 72mi, 116km
Updated: Mon, 25-Jun-2018 12:35pm CDT
Rain, Overcast
Rain, Overcast
 Wind from SE
Wind: SE 16 mph , 26 km/h, Gust: 23 mph , 37 km/h
Temperature: 70°F , 21°C
Dew Point: 70°F , 21°C
Humidity: 100%
Barometer: 29.86 inHg , 1011.2 hPa
Summary: Rain
Clouds: Overcast
Visibility: 2 1/2 miles , 2 km
Cloud details: Mostly Cloudy 600 ft
Overcast 1100 ft
2018/06/25 17:35 KAFK 251735Z AUTO 13014G20KT 2 1/2SM RA BKN006 OVC011 21/21 A2986 RMK AO2 P0011 T02060206
KOFF - Offutt Afb/Belle, Nebraska, USA
Distance from station: ENE 75mi, 121km
Updated: Mon, 25-Jun-2018 11:56am CDT
Rain, Mist, Overcast
Rain, Mist, Overcast
 Wind from E
Wind: E 12 mph , 19 km/h
Temperature: 70°F , 21°C
Dew Point: 68°F , 20°C
Humidity: 94%
Barometer: 29.86 inHg , 1011.2 hPa
Summary: Rain, Mist
Clouds: Overcast
Visibility: 5 miles , 8 km
Cloud details: Mostly Cloudy 1300 ft
Overcast 6000 ft
2018/06/25 16:56 KOFF 251656Z 10010KT 5SM RA BR BKN013 OVC060 21/20 A2986 RMK AO2A SLP110 P0003 T02120198 $
 
KBTA - Blair Muni, Nebraska, USA
Distance from station: NE 78mi, 125km
Updated: Mon, 25-Jun-2018 12:35pm CDT
Rain, Overcast
Rain, Overcast
 Wind from ESE
Wind: ESE 13 mph , 20 km/h
Temperature: 70°F , 21°C
Dew Point: 68°F , 20°C
Humidity: 94%
Barometer: 29.88 inHg , 1011.9 hPa
Summary: Rain
Clouds: Overcast
Visibility: 3 miles , 5 km
Cloud details: Mostly Cloudy 1000 ft
Mostly Cloudy 1500 ft
Overcast 2100 ft
2018/06/25 17:35 KBTA 251735Z AUTO 11011KT 3SM RA BKN010 BKN015 OVC021 21/20 A2988 RMK AO2 P0011 T02100198
KCNK - Concordia, Kansas, USA
Distance from station: SSW 80mi, 129km
Updated: Mon, 25-Jun-2018 11:55am CDT
Few Clouds
Few Clouds
 Wind from WSW
Wind: WSW 12 mph , 19 km/h
Temperature: 73°F , 23°C
Dew Point: 64°F , 18°C
Humidity: 74%
Barometer: 29.87 inHg , 1011.5 hPa
Clouds: Few Clouds
Visibility: 10 miles , 16 km
Cloud details: Few Clouds 2100 ft
2018/06/25 16:55 KCNK 251655Z AUTO 25010KT 10SM FEW021 23/18 A2987 RMK AO2 SLP100 T02330183
 
KOMA - Omaha/Eppley, Nebraska, USA
Distance from station: NE 82mi, 133km
Updated: Mon, 25-Jun-2018 12:52pm CDT
Rain, Mist, Overcast
Rain, Mist, Overcast
 Wind from ESE
Wind: ESE 16 mph , 26 km/h, Gust: 24 mph , 39 km/h
Temperature: 72°F , 22°C
Dew Point: 66°F , 19°C
Humidity: 83%
Barometer: 29.87 inHg , 1011.5 hPa
Summary: Rain, Mist
Clouds: Overcast
Visibility: 4 miles , 6 km
Cloud details: Few Clouds 1300 ft
Mostly Cloudy 4500 ft
Overcast 6000 ft
2018/06/25 17:52 KOMA 251752Z 12014G21KT 4SM RA BR FEW013 BKN045 OVC060 22/19 A2987 RMK AO2 SLP107 P0013
KBVN - Albion Muni, Nebraska, USA
Distance from station: NNW 86mi, 138km
Updated: Mon, 25-Jun-2018 12:35pm CDT
Rain, Overcast
Rain, Overcast
 Wind from ENE
Wind: ENE 8 mph , 13 km/h
Temperature: 64°F , 18°C
Dew Point: 64°F , 18°C
Humidity: 100%
Barometer: 29.89 inHg , 1012.2 hPa
Summary: Rain
Clouds: Overcast
Visibility: 7 miles , 11 km
Cloud details: Partly Cloudy 900 ft
Mostly Cloudy 7000 ft
Overcast 9000 ft
2018/06/25 17:35 KBVN 251735Z AUTO 06007KT 7SM RA SCT009 BKN070 OVC090 18/18 A2989 RMK AO2 P0009 T01820176
 
KCBF - Council Bluffs, Iowa, USA
Distance from station: ENE 87mi, 139km
Updated: Mon, 25-Jun-2018 12:35pm CDT

 
2018/06/25 17:35 KCBF 251735Z AUTO RMK AO2 PNO PWINO
KOFK - Norfolk, Nebraska, USA
Distance from station: N 92mi, 148km
Updated: Mon, 25-Jun-2018 12:46pm CDT
Rain, Mist, Overcast
Rain, Mist, Overcast
 
Temperature: 64°F , 18°C
Dew Point: 63°F , 17°C
Humidity: 94%
Barometer: 29.90 inHg , 1012.5 hPa
Summary: Rain, Mist
Clouds: Overcast
Visibility: 3 miles , 5 km
Cloud details: Mostly Cloudy 800 ft
Mostly Cloudy 1300 ft
Overcast 4600 ft
2018/06/25 17:46 KOFK 251746Z AUTO 3SM RA BR BKN008 BKN013 OVC046 18/17 A2990 RMK AO2 P0016 T01780172

Metar display script from Saratoga-Weather.org